Time;durP1;ratioP1;P1;durP2;ratioP2;P2;SDS_P1;SDS_P2;PMS_P1;PMS_P2;Temp;Humidity;BMP_temperature;BMP_pressure;BME280_temperature;BME280_humidity;BME280_pressure;Samples;Min_cycle;Max_cycle;Signal;HPM_P1;HPM_P2
2022/09/27 00:01:09;;;;;;;1.88;0.90;;;20.90;50.50;;;;;;5039968;28;20033;-53
2022/09/27 00:03:35;;;;;;;1.33;0.60;;;20.90;50.50;;;;;;5036834;28;20034;-53
2022/09/27 00:06:05;;;;;;;2.10;0.63;;;21.00;50.60;;;;;;5036887;28;20025;-52
2022/09/27 00:08:32;;;;;;;2.08;0.77;;;21.00;50.50;;;;;;5047552;28;20025;-48
2022/09/27 00:11:00;;;;;;;1.63;0.60;;;20.90;50.40;;;;;;5037405;28;20030;-52
2022/09/27 00:13:26;;;;;;;1.65;0.50;;;20.90;50.40;;;;;;5036772;28;20040;-52
2022/09/27 00:15:59;;;;;;;1.77;0.70;;;20.90;50.40;;;;;;5044273;28;20025;-52
2022/09/27 00:18:25;;;;;;;1.67;0.60;;;20.90;50.40;;;;;;5045573;28;20029;-50
2022/09/27 00:20:52;;;;;;;1.30;0.55;;;20.90;50.40;;;;;;5040844;28;20055;-53
2022/09/27 00:23:18;;;;;;;1.90;0.65;;;20.90;50.40;;;;;;5055737;28;20047;-52
2022/09/27 00:25:54;;;;;;;2.25;0.60;;;20.90;50.30;;;;;;5055471;28;20052;-52
2022/09/27 00:28:20;;;;;;;2.88;0.57;;;20.90;50.30;;;;;;5056739;28;20029;-50
2022/09/27 00:30:46;;;;;;;1.48;0.60;;;20.90;50.30;;;;;;5045869;28;20125;-54
2022/09/27 00:33:12;;;;;;;1.35;0.60;;;20.90;50.30;;;;;;5041255;28;20030;-51
2022/09/27 00:35:37;;;;;;;2.40;0.63;;;20.90;50.30;;;;;;5040432;28;20040;-54
2022/09/27 00:38:03;;;;;;;0.82;0.40;;;20.90;50.30;;;;;;5055215;28;20044;-54
2022/09/27 00:40:29;;;;;;;1.55;0.70;;;20.90;50.20;;;;;;5056624;28;20053;-54
2022/09/27 00:42:55;;;;;;;1.77;0.77;;;20.90;50.20;;;;;;5046913;28;20041;-50
2022/09/27 00:45:21;;;;;;;1.30;0.60;;;20.90;50.20;;;;;;5046382;28;20106;-54
2022/09/27 00:48:00;;;;;;;2.03;0.70;;;20.80;50.10;;;;;;5043574;28;20033;-55
2022/09/27 00:50:31;;;;;;;2.47;0.57;;;20.90;50.10;;;;;;5044658;28;20040;-51
2022/09/27 00:53:34;;;;;;;2.17;0.70;;;20.90;50.20;;;;;;5056736;28;20033;-51
2022/09/27 00:56:03;;;;;;;1.58;0.57;;;20.90;50.10;;;;;;5043236;28;20036;-56
2022/09/27 00:58:45;;;;;;;2.22;0.60;;;20.80;50.10;;;;;;5039317;28;20037;-50
2022/09/27 01:01:12;;;;;;;1.80;0.60;;;20.80;50.00;;;;;;5035176;28;20037;-54
2022/09/27 01:04:07;;;;;;;1.23;0.50;;;20.80;50.10;;;;;;5035620;28;20034;-51
2022/09/27 01:06:33;;;;;;;1.50;0.40;;;20.80;50.00;;;;;;5044821;28;20036;-55
2022/09/27 01:08:59;;;;;;;0.60;0.40;;;20.80;50.00;;;;;;5045382;28;20033;-53
2022/09/27 01:11:41;;;;;;;2.00;0.60;;;20.80;50.00;;;;;;5034977;28;20033;-54
2022/09/27 01:14:33;;;;;;;1.90;0.60;;;20.80;50.00;;;;;;5047079;28;20033;-54
2022/09/27 01:17:35;;;;;;;1.15;0.40;;;20.80;50.00;;;;;;5054095;28;20044;-53
2022/09/27 01:20:33;;;;;;;1.10;0.50;;;20.80;49.90;;;;;;5036162;28;20152;-51
2022/09/27 01:23:38;;;;;;;2.55;0.60;;;20.80;49.90;;;;;;5054347;28;20147;-50
2022/09/27 01:26:13;;;;;;;2.90;0.50;;;20.80;49.90;;;;;;5039416;28;20040;-53
2022/09/27 01:29:15;;;;;;;0.98;0.50;;;20.80;49.90;;;;;;5054501;28;20459;-51
2022/09/27 01:32:06;;;;;;;1.55;0.50;;;20.70;49.90;;;;;;5047494;28;20029;-49
2022/09/27 01:34:42;;;;;;;1.77;0.73;;;20.70;49.80;;;;;;5039278;28;20131;-52
2022/09/27 01:37:26;;;;;;;2.25;0.50;;;20.70;49.80;;;;;;5040611;28;20044;-51
2022/09/27 01:39:55;;;;;;;1.02;0.47;;;20.70;49.80;;;;;;5034620;28;20040;-51
2022/09/27 01:42:44;;;;;;;0.95;0.45;;;20.70;49.80;;;;;;5032709;28;20065;-53
2022/09/27 01:45:33;;;;;;;1.15;0.60;;;20.70;49.80;;;;;;5034506;28;20124;-50
2022/09/27 01:48:20;;;;;;;1.10;0.45;;;20.70;49.80;;;;;;5034543;28;20041;-53
2022/09/27 01:51:03;;;;;;;1.55;0.47;;;20.70;49.80;;;;;;5047338;28;20029;-51
2022/09/27 01:53:37;;;;;;;1.45;0.55;;;20.70;49.80;;;;;;5066956;28;20064;-54
2022/09/27 01:56:33;;;;;;;0.93;0.30;;;20.70;49.70;;;;;;5018676;28;20094;-51
2022/09/27 01:59:09;;;;;;;1.23;0.63;;;20.70;49.70;;;;;;5051614;28;20052;-53
2022/09/27 02:01:39;;;;;;;1.35;0.50;;;20.70;49.70;;;;;;5048767;28;20098;-52
2022/09/27 02:04:10;;;;;;;0.80;0.40;;;20.70;49.70;;;;;;5039856;28;20449;-54
2022/09/27 02:06:46;;;;;;;0.95;0.40;;;20.70;49.70;;;;;;5044279;28;20368;-52
2022/09/27 02:09:33;;;;;;;0.70;0.40;;;20.70;49.70;;;;;;5047924;28;20110;-50
2022/09/27 02:12:13;;;;;;;1.40;0.30;;;20.70;49.70;;;;;;5033894;28;20152;-49
2022/09/27 02:14:56;;;;;;;1.10;0.52;;;20.70;49.60;;;;;;5034965;28;20045;-52
2022/09/27 02:17:36;;;;;;;1.27;0.50;;;20.70;49.60;;;;;;5034697;28;20091;-52
2022/09/27 02:20:11;;;;;;;1.27;0.40;;;20.70;49.60;;;;;;5044579;28;20020;-53
2022/09/27 02:23:21;;;;;;;1.15;0.40;;;20.70;49.50;;;;;;5034127;28;20378;-54
2022/09/27 02:26:00;;;;;;;1.27;0.47;;;20.70;49.50;;;;;;5064264;28;20037;-54
2022/09/27 02:28:34;;;;;;;0.52;0.20;;;20.70;49.50;;;;;;5033693;28;20039;-51
2022/09/27 02:31:00;;;;;;;0.77;0.32;;;20.70;49.50;;;;;;5048684;28;20133;-51
2022/09/27 02:33:45;;;;;;;4.07;0.60;;;20.70;49.50;;;;;;5032917;28;20040;-52
2022/09/27 02:36:11;;;;;;;1.60;0.60;;;20.60;49.40;;;;;;5050536;28;20037;-49
2022/09/27 02:38:38;;;;;;;1.80;0.60;;;20.70;49.50;;;;;;5051545;28;20042;-51
2022/09/27 02:41:20;;;;;;;0.90;0.40;;;20.70;49.40;;;;;;5033317;28;20037;-52
2022/09/27 02:43:49;;;;;;;1.58;0.60;;;20.70;49.40;;;;;;5035523;28;20042;-52
2022/09/27 02:46:35;;;;;;;1.17;0.40;;;20.70;49.30;;;;;;5033579;28;20041;-51
2022/09/27 02:49:12;;;;;;;0.70;0.32;;;20.60;49.20;;;;;;5030514;28;20029;-54
2022/09/27 02:51:40;;;;;;;1.23;0.40;;;20.70;49.20;;;;;;5043466;28;20388;-51
2022/09/27 02:54:19;;;;;;;2.53;0.50;;;20.60;49.10;;;;;;5050265;28;20053;-51
2022/09/27 02:57:54;;;;;;;0.70;0.40;;;20.70;49.10;;;;;;5022384;28;20364;-52
2022/09/27 03:00:51;;;;;;;0.90;0.32;;;20.60;48.90;;;;;;5049671;28;20467;-52
2022/09/27 03:04:14;;;;;;;1.05;0.30;;;20.70;48.90;;;;;;5033157;28;20057;-53
2022/09/27 03:06:44;;;;;;;1.15;0.47;;;20.70;48.80;;;;;;5037473;28;20330;-53
2022/09/27 03:09:22;;;;;;;1.30;0.47;;;20.70;48.80;;;;;;5044981;28;20106;-55
2022/09/27 03:11:48;;;;;;;1.77;0.32;;;20.60;48.70;;;;;;5048650;28;20029;-49
2022/09/27 03:14:14;;;;;;;1.45;0.50;;;20.70;48.70;;;;;;5048257;28;20040;-49
2022/09/27 03:16:49;;;;;;;0.50;0.30;;;20.70;48.60;;;;;;5033193;28;20342;-52
2022/09/27 03:19:35;;;;;;;2.03;0.40;;;20.70;48.60;;;;;;5039891;28;20053;-51
2022/09/27 03:22:30;;;;;;;1.40;0.40;;;20.70;48.50;;;;;;5034722;28;20068;-52
2022/09/27 03:24:56;;;;;;;1.27;0.52;;;20.70;48.50;;;;;;5047474;28;20441;-48
2022/09/27 03:27:22;;;;;;;0.73;0.32;;;20.70;48.40;;;;;;5037399;28;20030;-54
2022/09/27 03:29:48;;;;;;;0.80;0.30;;;20.70;48.40;;;;;;5039711;28;20017;-51
2022/09/27 03:32:14;;;;;;;0.98;0.30;;;20.70;48.40;;;;;;5036851;28;20040;-52
2022/09/27 03:34:54;;;;;;;1.13;0.30;;;20.70;48.30;;;;;;5036827;28;20034;-49
2022/09/27 03:37:21;;;;;;;1.02;0.30;;;20.70;48.30;;;;;;5041112;28;20029;-50
2022/09/27 03:39:47;;;;;;;1.00;0.40;;;20.70;48.30;;;;;;5045329;28;20113;-49
2022/09/27 03:42:13;;;;;;;0.70;0.30;;;20.70;48.20;;;;;;5054706;28;20442;-49
2022/09/27 03:44:45;;;;;;;1.02;0.30;;;20.70;48.20;;;;;;5056464;28;20106;-51
2022/09/27 03:47:12;;;;;;;1.67;0.22;;;20.70;48.10;;;;;;5056344;28;20036;-53
2022/09/27 03:49:38;;;;;;;1.77;0.35;;;20.70;48.10;;;;;;5054827;28;20522;-54
2022/09/27 03:52:04;;;;;;;1.00;0.30;;;20.70;48.10;;;;;;5055962;28;20040;-51
2022/09/27 03:54:30;;;;;;;1.33;0.40;;;20.70;48.10;;;;;;5038613;28;20034;-50
2022/09/27 03:56:55;;;;;;;1.70;0.47;;;20.70;48.00;;;;;;5047453;28;20025;-49
2022/09/27 03:59:22;;;;;;;2.28;0.50;;;20.70;48.00;;;;;;5054261;28;20456;-50
2022/09/27 04:02:06;;;;;;;1.25;0.40;;;20.70;48.00;;;;;;5057431;28;20094;-51
2022/09/27 04:04:51;;;;;;;0.60;0.30;;;20.70;48.00;;;;;;5057407;28;20138;-51
2022/09/27 04:07:17;;;;;;;2.20;0.47;;;20.70;48.00;;;;;;5043281;28;20029;-50
2022/09/27 04:09:43;;;;;;;1.00;0.40;;;20.70;47.90;;;;;;5041854;28;20040;-51
2022/09/27 04:12:10;;;;;;;0.80;0.30;;;20.70;47.90;;;;;;5056000;28;20473;-50
2022/09/27 04:14:36;;;;;;;0.77;0.20;;;20.70;48.00;;;;;;5057087;28;20033;-53
2022/09/27 04:17:20;;;;;;;1.73;0.47;;;20.70;48.10;;;;;;5036301;28;20064;-51
2022/09/27 04:20:10;;;;;;;2.15;0.43;;;20.70;48.00;;;;;;5036664;28;20090;-51
2022/09/27 04:22:43;;;;;;;0.75;0.30;;;20.70;48.00;;;;;;5036053;28;20030;-53
2022/09/27 04:25:09;;;;;;;3.15;0.60;;;20.70;48.00;;;;;;5036728;28;20045;-52
2022/09/27 04:27:39;;;;;;;1.52;0.50;;;20.70;48.00;;;;;;5035789;28;20095;-55
2022/09/27 04:30:06;;;;;;;1.58;0.50;;;20.70;47.90;;;;;;5047162;28;20036;-55
2022/09/27 04:32:58;;;;;;;0.82;0.32;;;20.70;47.90;;;;;;5043889;28;20068;-54
2022/09/27 04:36:43;;;;;;;1.67;0.47;;;20.70;47.80;;;;;;5054596;28;20086;-54
2022/09/27 04:38:41;;;;;;;1.08;0.50;;;20.70;47.80;;;;;;5027620;28;20056;-55
2022/09/27 04:41:08;;;;;;;1.30;0.40;;;20.70;47.80;;;;;;5055210;28;20033;-52
2022/09/27 04:43:37;;;;;;;2.97;0.55;;;20.70;47.80;;;;;;5055230;28;20497;-55
2022/09/27 04:46:03;;;;;;;1.15;0.45;;;20.70;47.80;;;;;;5046213;28;20117;-56
2022/09/27 04:48:29;;;;;;;1.15;0.43;;;20.70;47.70;;;;;;5038084;28;20037;-53
2022/09/27 04:51:01;;;;;;;1.58;0.70;;;20.70;47.70;;;;;;5038827;28;20029;-52
2022/09/27 04:53:30;;;;;;;1.52;0.52;;;20.70;47.70;;;;;;5055083;28;20345;-49
2022/09/27 04:55:57;;;;;;;1.63;0.40;;;20.70;47.70;;;;;;5055148;28;20024;-53
2022/09/27 04:58:24;;;;;;;1.88;0.55;;;20.70;47.60;;;;;;5040538;28;20036;-51
2022/09/27 05:00:54;;;;;;;2.10;0.68;;;20.70;47.60;;;;;;5036096;28;20043;-50
2022/09/27 05:03:55;;;;;;;1.65;0.47;;;20.70;47.50;;;;;;5045402;28;20056;-54
2022/09/27 05:06:22;;;;;;;2.25;0.45;;;20.70;47.50;;;;;;5040732;28;20392;-54
2022/09/27 05:08:48;;;;;;;1.67;0.63;;;20.70;47.50;;;;;;5036759;28;20056;-50
2022/09/27 05:11:17;;;;;;;1.40;0.65;;;20.70;47.50;;;;;;5036481;28;20468;-50
2022/09/27 05:14:04;;;;;;;2.40;0.65;;;20.70;47.50;;;;;;5040077;28;20047;-53
2022/09/27 05:16:35;;;;;;;2.63;0.60;;;20.70;47.50;;;;;;5051309;28;20029;-52
2022/09/27 05:19:38;;;;;;;2.58;0.60;;;20.70;47.50;;;;;;5023312;28;20092;-53
2022/09/27 05:22:05;;;;;;;2.40;0.93;;;20.70;47.60;;;;;;5049431;28;20530;-52
2022/09/27 05:24:32;;;;;;;2.90;0.95;;;20.70;47.60;;;;;;5054778;28;20102;-51
2022/09/27 05:26:59;;;;;;;1.40;0.40;;;20.70;47.50;;;;;;5052343;28;20534;-51
2022/09/27 05:29:25;;;;;;;2.10;0.68;;;20.70;47.50;;;;;;5055667;28;20048;-49
2022/09/27 05:32:14;;;;;;;1.30;0.50;;;20.70;47.50;;;;;;5052730;28;20072;-50
2022/09/27 05:34:45;;;;;;;1.73;0.50;;;20.70;47.40;;;;;;5049828;28;20083;-50
2022/09/27 05:37:11;;;;;;;2.33;0.60;;;20.70;47.40;;;;;;5052805;28;20487;-48
2022/09/27 05:39:39;;;;;;;1.75;0.65;;;20.70;47.30;;;;;;5054605;28;20102;-47
2022/09/27 05:42:09;;;;;;;0.90;0.40;;;20.70;47.30;;;;;;5049817;28;20033;-56
2022/09/27 05:44:35;;;;;;;3.20;0.50;;;20.70;47.20;;;;;;5033551;28;20121;-50
2022/09/27 05:47:03;;;;;;;1.55;0.70;;;20.70;47.20;;;;;;5049825;28;20429;-55
2022/09/27 05:49:30;;;;;;;2.55;0.55;;;20.70;47.10;;;;;;5049241;28;20029;-50
2022/09/27 05:51:56;;;;;;;1.55;0.50;;;20.70;47.00;;;;;;5052722;28;20463;-53
2022/09/27 05:54:24;;;;;;;1.08;0.60;;;20.70;47.00;;;;;;5050546;28;20091;-49
2022/09/27 05:56:57;;;;;;;2.55;0.40;;;20.70;46.90;;;;;;5050811;28;20033;-52
2022/09/27 05:59:43;;;;;;;1.52;0.55;;;20.70;46.80;;;;;;5035075;28;20395;-52
2022/09/27 06:02:29;;;;;;;1.63;0.70;;;20.70;46.80;;;;;;5036709;28;20045;-54
2022/09/27 06:05:18;;;;;;;1.00;0.38;;;20.70;46.80;;;;;;5030782;28;20379;-52
2022/09/27 06:07:48;;;;;;;1.75;0.60;;;20.60;46.70;;;;;;5036768;28;20095;-52
2022/09/27 06:10:19;;;;;;;1.73;0.50;;;20.70;46.80;;;;;;5032055;28;20085;-50
2022/09/27 06:12:46;;;;;;;2.15;0.50;;;20.70;46.80;;;;;;5042308;28;20383;-49
2022/09/27 06:15:28;;;;;;;2.38;0.63;;;20.70;46.80;;;;;;5053289;28;20353;-53
2022/09/27 06:17:55;;;;;;;1.73;0.52;;;20.70;46.80;;;;;;5032547;28;20097;-50
2022/09/27 06:20:22;;;;;;;1.35;0.60;;;20.70;46.80;;;;;;5046226;28;20045;-53
2022/09/27 06:22:48;;;;;;;0.98;0.50;;;20.70;46.80;;;;;;5039098;28;20042;-50
2022/09/27 06:25:14;;;;;;;0.98;0.40;;;20.70;46.80;;;;;;5030328;28;20100;-50
2022/09/27 06:27:56;;;;;;;1.40;0.40;;;20.70;46.80;;;;;;5039591;28;20049;-53
2022/09/27 06:30:26;;;;;;;2.28;0.40;;;20.70;46.80;;;;;;5033244;28;20044;-54
2022/09/27 06:33:00;;;;;;;2.08;0.60;;;20.70;46.90;;;;;;5033449;28;20068;-51
2022/09/27 06:35:44;;;;;;;1.25;0.50;;;20.70;46.90;;;;;;5053852;28;20416;-52
2022/09/27 06:38:12;;;;;;;1.02;0.40;;;20.70;47.00;;;;;;5049239;28;20107;-53
2022/09/27 06:40:46;;;;;;;2.22;0.50;;;20.70;47.00;;;;;;5036745;28;20025;-57
2022/09/27 06:43:30;;;;;;;1.88;0.52;;;20.70;47.00;;;;;;5031831;28;20042;-50
2022/09/27 06:46:31;;;;;;;1.02;0.40;;;20.70;47.00;;;;;;5030775;28;20100;-51
2022/09/27 06:49:17;;;;;;;1.33;0.50;;;20.70;47.00;;;;;;5037889;28;20065;-52
2022/09/27 06:51:43;;;;;;;3.10;0.65;;;20.70;47.00;;;;;;5032401;28;20401;-53
2022/09/27 06:54:09;;;;;;;1.33;0.38;;;20.70;46.90;;;;;;5032285;28;20055;-52
2022/09/27 06:56:35;;;;;;;1.60;0.55;;;20.70;46.90;;;;;;5033166;28;20436;-51
2022/09/27 07:01:45;;;;;;;0.95;0.30;;;20.70;47.00;;;;;;5036298;28;20445;-53
2022/09/27 07:04:18;;;;;;;0.60;0.30;;;20.70;47.00;;;;;;5051013;28;20033;-51
2022/09/27 07:07:02;;;;;;;0.40;0.40;;;20.70;47.00;;;;;;5041902;28;20057;-52
2022/09/27 07:09:37;;;;;;;0.40;0.30;;;20.70;47.00;;;;;;5042211;28;20050;-49
2022/09/27 07:12:05;;;;;;;1.08;0.35;;;20.70;47.00;;;;;;5032275;28;20342;-54
2022/09/27 07:14:32;;;;;;;1.50;0.30;;;20.70;47.00;;;;;;5038222;28;20118;-53
2022/09/27 07:16:58;;;;;;;0.63;0.38;;;20.70;47.00;;;;;;5037334;28;20052;-55
2022/09/27 07:19:27;;;;;;;0.75;0.30;;;20.70;47.00;;;;;;5063217;28;20037;-47
2022/09/27 07:21:53;;;;;;;1.20;0.50;;;20.80;47.00;;;;;;5045156;28;20176;-53
2022/09/27 07:24:19;;;;;;;2.47;0.47;;;20.80;47.00;;;;;;5038409;28;20469;-52
2022/09/27 07:26:47;;;;;;;1.30;0.40;;;20.80;47.00;;;;;;5056936;28;20436;-54
2022/09/27 07:29:13;;;;;;;0.70;0.22;;;20.80;47.60;;;;;;5056540;28;20025;-49
2022/09/27 07:31:39;;;;;;;2.17;0.60;;;20.80;47.00;;;;;;5041499;28;20030;-53
2022/09/27 07:34:05;;;;;;;1.65;0.47;;;20.80;47.00;;;;;;5036895;28;20033;-51
2022/09/27 07:36:31;;;;;;;1.27;0.40;;;20.80;47.00;;;;;;5017865;28;20022;-53
2022/09/27 07:39:00;;;;;;;2.40;0.50;;;20.80;47.00;;;;;;5033270;28;20041;-47
2022/09/27 07:41:26;;;;;;;1.63;0.50;;;20.80;47.00;;;;;;5034456;28;20389;-54
2022/09/27 07:43:53;;;;;;;1.20;0.40;;;20.80;47.00;;;;;;5044841;28;20041;-50
2022/09/27 07:46:19;;;;;;;1.08;0.43;;;20.80;47.00;;;;;;5048678;28;20041;-50
2022/09/27 07:49:04;;;;;;;;;;;20.80;47.00;;;;;;5036622;28;20056;-49
2022/09/27 07:51:33;;;;;;;1.58;0.50;;;20.80;47.00;;;;;;5035651;28;19920;-54
2022/09/27 07:54:06;;;;;;;0.90;0.40;;;20.80;47.10;;;;;;5051868;28;20037;-50
2022/09/27 07:56:34;;;;;;;2.53;0.60;;;20.80;47.10;;;;;;5038463;28;20037;-50
2022/09/27 07:59:01;;;;;;;2.17;0.50;;;20.80;47.10;;;;;;5036077;28;20392;-51
2022/09/27 08:01:27;;;;;;;2.03;0.40;;;20.80;47.30;;;;;;5036143;28;20029;-50
2022/09/27 08:03:53;;;;;;;1.85;0.40;;;20.80;47.30;;;;;;5035315;28;20465;-54
2022/09/27 08:06:20;;;;;;;1.15;0.45;;;20.80;47.30;;;;;;5033413;28;20389;-52
2022/09/27 08:08:46;;;;;;;0.75;0.30;;;20.90;47.40;;;;;;5051405;28;20049;-53
2022/09/27 08:11:17;;;;;;;1.10;0.40;;;20.80;47.30;;;;;;5055976;28;20033;-54
2022/09/27 08:13:45;;;;;;;1.85;0.57;;;20.90;47.40;;;;;;5056002;28;20047;-53
2022/09/27 08:16:13;;;;;;;0.93;0.40;;;20.90;47.30;;;;;;5054307;28;20094;-51
2022/09/27 08:18:57;;;;;;;1.58;0.32;;;20.90;47.30;;;;;;5048131;28;20467;-53
2022/09/27 08:21:51;;;;;;;1.27;0.40;;;20.80;47.20;;;;;;5035809;28;20118;-52
2022/09/27 08:24:21;;;;;;;0.75;0.30;;;20.90;47.30;;;;;;5052172;28;20048;-52
2022/09/27 08:27:04;;;;;;;1.55;0.40;;;20.90;47.30;;;;;;5051480;28;20104;-54
2022/09/27 08:29:44;;;;;;;2.58;0.40;;;20.90;47.30;;;;;;5050900;28;20029;-48
2022/09/27 08:32:11;;;;;;;1.08;0.40;;;20.90;47.20;;;;;;5051583;28;20036;-52
2022/09/27 08:34:37;;;;;;;1.60;0.52;;;20.90;47.20;;;;;;5054937;28;20028;-52
2022/09/27 08:37:03;;;;;;;0.80;0.32;;;20.90;47.20;;;;;;5055487;28;20116;-52
2022/09/27 08:39:29;;;;;;;1.15;0.50;;;20.90;47.20;;;;;;5055585;28;20100;-54
2022/09/27 08:42:17;;;;;;;0.85;0.30;;;20.90;47.10;;;;;;5055903;28;20047;-53
2022/09/27 08:44:58;;;;;;;1.80;0.45;;;20.90;47.10;;;;;;5053574;28;20120;-55
2022/09/27 08:47:51;;;;;;;1.75;0.50;;;20.90;47.10;;;;;;5051505;28;20378;-53
2022/09/27 08:50:29;;;;;;;2.50;0.60;;;20.90;47.00;;;;;;5056279;28;20033;-52
2022/09/27 08:53:40;;;;;;;1.17;0.40;;;20.90;47.00;;;;;;5055348;28;20471;-54
2022/09/27 08:56:09;;;;;;;0.85;0.43;;;20.90;47.00;;;;;;4958823;28;20042;-52
2022/09/27 08:58:47;;;;;;;1.42;0.47;;;20.90;47.00;;;;;;4992754;28;20129;-52
2022/09/27 09:01:19;;;;;;;1.65;0.45;;;20.90;46.90;;;;;;5019093;28;20099;-54
2022/09/27 09:03:56;;;;;;;0.70;0.30;;;20.90;46.90;;;;;;5050081;28;20394;-52
2022/09/27 09:06:43;;;;;;;1.73;0.50;;;20.90;46.90;;;;;;5045515;28;20030;-51
2022/09/27 09:09:27;;;;;;;0.82;0.32;;;20.90;46.90;;;;;;5025606;28;20111;-52
2022/09/27 09:12:47;;;;;;;0.40;0.20;;;20.90;46.90;;;;;;5046980;28;20052;-55
2022/09/27 09:15:55;;;;;;;2.45;0.52;;;20.90;46.90;;;;;;5048907;28;20037;-53
2022/09/27 09:19:02;;;;;;;1.45;0.38;;;20.90;46.90;;;;;;5046273;28;20459;-50
2022/09/27 09:22:12;;;;;;;1.08;0.30;;;21.00;47.00;;;;;;5034161;28;20044;-48
2022/09/27 09:24:55;;;;;;;0.68;0.30;;;21.00;47.00;;;;;;5045657;28;20028;-53
2022/09/27 09:27:38;;;;;;;0.75;0.28;;;21.00;47.00;;;;;;5054388;28;20021;-49
2022/09/27 09:30:21;;;;;;;0.73;0.28;;;21.00;47.00;;;;;;5050029;28;20528;-50
2022/09/27 09:33:17;;;;;;;1.60;0.40;;;21.00;47.00;;;;;;5051264;28;20033;-50
2022/09/27 09:36:07;;;;;;;0.80;0.28;;;21.00;46.90;;;;;;5050582;28;20086;-52
2022/09/27 09:38:43;;;;;;;0.57;0.30;;;21.00;46.90;;;;;;5054040;28;20032;-51
2022/09/27 09:41:26;;;;;;;0.70;0.38;;;21.00;46.90;;;;;;5031317;28;20025;-52
2022/09/27 09:44:03;;;;;;;1.13;0.38;;;21.00;46.80;;;;;;5031944;28;20036;-49
2022/09/27 09:46:38;;;;;;;1.08;0.32;;;21.00;46.80;;;;;;5042401;28;20037;-51
2022/09/27 09:49:28;;;;;;;2.00;0.40;;;21.00;46.80;;;;;;5033812;28;20029;-53
2022/09/27 09:52:02;;;;;;;0.73;0.40;;;21.00;46.80;;;;;;5032082;28;21068;-55
2022/09/27 09:54:41;;;;;;;1.23;0.38;;;21.00;47.00;;;;;;5056860;28;20094;-50
2022/09/27 09:57:19;;;;;;;1.10;0.30;;;21.00;47.20;;;;;;5037255;28;20430;-49
2022/09/27 10:00:05;;;;;;;1.83;0.30;;;21.00;47.10;;;;;;5049636;28;20368;-50
2022/09/27 10:02:43;;;;;;;1.35;0.30;;;21.00;47.10;;;;;;5034643;28;20033;-51
2022/09/27 10:05:20;;;;;;;1.80;0.47;;;21.00;47.10;;;;;;5045478;28;20041;-47
2022/09/27 10:07:50;;;;;;;1.02;0.47;;;21.00;47.20;;;;;;5048833;28;20048;-51
2022/09/27 10:10:19;;;;;;;0.75;0.50;;;21.00;47.20;;;;;;5032957;28;20133;-51
2022/09/27 10:13:04;;;;;;;1.20;0.50;;;21.00;47.10;;;;;;5055349;28;20055;-53
2022/09/27 10:15:34;;;;;;;1.63;0.40;;;21.10;47.10;;;;;;5038721;28;20397;-52
2022/09/27 10:18:00;;;;;;;1.23;0.57;;;21.10;47.00;;;;;;5046803;28;20056;-61
2022/09/27 10:20:29;;;;;;;2.53;0.50;;;21.10;47.00;;;;;;5038347;28;20030;-60
2022/09/27 10:23:25;;;;;;;3.58;1.40;;;21.10;47.40;;;;;;5037687;28;20349;-60
2022/09/27 10:26:26;;;;;;;8.88;3.15;;;21.10;48.00;;;;;;4970877;28;20045;-58
2022/09/27 10:28:52;;;;;;;13.57;4.20;;;21.10;48.90;;;;;;5022805;28;20042;-56
2022/09/27 10:31:36;;;;;;;14.70;5.03;;;21.20;49.50;;;;;;5048762;28;20029;-61
2022/09/27 10:34:30;;;;;;;11.65;4.85;;;21.30;49.90;;;;;;5057514;28;20033;-58
2022/09/27 10:37:10;;;;;;;8.10;3.67;;;21.40;49.70;;;;;;5051980;28;20444;-57
2022/09/27 10:39:42;;;;;;;7.10;2.90;;;21.50;49.40;;;;;;5053349;28;20180;-56
2022/09/27 10:42:37;;;;;;;7.43;3.10;;;21.70;49.20;;;;;;5047765;28;20060;-61
2022/09/27 10:45:40;;;;;;;5.13;2.35;;;21.80;48.90;;;;;;5055622;28;20021;-57
2022/09/27 10:48:22;;;;;;;5.07;1.83;;;21.90;48.40;;;;;;5040300;28;20041;-56
2022/09/27 10:51:04;;;;;;;5.85;2.05;;;22.10;48.10;;;;;;5049957;28;20110;-56
2022/09/27 10:53:51;;;;;;;3.63;1.65;;;22.20;47.70;;;;;;5033729;28;20029;-55
2022/09/27 10:56:31;;;;;;;4.70;1.50;;;22.20;47.50;;;;;;5048965;28;20017;-58
2022/09/27 10:58:59;;;;;;;4.97;1.20;;;22.30;47.20;;;;;;5047697;28;20457;-58
2022/09/27 11:01:39;;;;;;;4.03;1.38;;;22.40;47.00;;;;;;5031949;28;20033;-59
2022/09/27 11:04:37;;;;;;;2.88;1.02;;;22.50;46.80;;;;;;5043741;28;20414;-57
2022/09/27 11:07:11;;;;;;;2.97;1.25;;;22.60;46.60;;;;;;5047892;28;20032;-60
2022/09/27 11:09:53;;;;;;;2.05;0.80;;;22.70;46.30;;;;;;5040580;28;20053;-60
2022/09/27 11:12:24;;;;;;;1.50;0.75;;;22.70;45.90;;;;;;5045590;28;20363;-58
2022/09/27 11:15:06;;;;;;;2.53;0.88;;;22.90;45.80;;;;;;5039755;28;20072;-56
2022/09/27 11:17:47;;;;;;;3.22;0.90;;;23.00;45.50;;;;;;5044818;28;20073;-56
2022/09/27 11:20:24;;;;;;;3.65;1.38;;;23.10;45.20;;;;;;5040392;28;20461;-56
2022/09/27 11:23:17;;;;;;;6.55;1.00;;;23.20;45.00;;;;;;5045163;28;20037;-58
2022/09/27 11:26:02;;;;;;;5.30;1.00;;;23.40;45.00;;;;;;5044453;28;20459;-55
2022/09/27 11:28:43;;;;;;;8.20;1.20;;;23.50;45.00;;;;;;5039839;28;20030;-56
2022/09/27 11:31:46;;;;;;;8.05;1.13;;;23.50;44.80;;;;;;5043520;28;20498;-56
2022/09/27 11:34:42;;;;;;;5.05;1.20;;;23.60;44.70;;;;;;5044555;28;20033;-58
2022/09/27 11:37:35;;;;;;;5.75;1.10;;;23.60;44.70;;;;;;5041294;28;20345;-59
2022/09/27 11:40:26;;;;;;;4.78;1.10;;;23.70;44.70;;;;;;5041842;28;20068;-57
2022/09/27 11:43:21;;;;;;;4.32;1.20;;;23.70;44.60;;;;;;5038978;28;20033;-57
2022/09/27 11:46:00;;;;;;;5.00;0.80;;;23.70;44.60;;;;;;5043941;28;20041;-58
2022/09/27 11:48:40;;;;;;;2.85;0.70;;;23.70;44.40;;;;;;5051341;28;20052;-56
2022/09/27 11:51:12;;;;;;;5.13;1.20;;;23.80;44.30;;;;;;5038598;28;20044;-55
2022/09/27 11:54:04;;;;;;;2.90;0.80;;;23.80;44.10;;;;;;5056437;28;20037;-55
2022/09/27 11:56:37;;;;;;;2.13;0.63;;;23.80;43.90;;;;;;5050118;28;20444;-52
2022/09/27 11:59:39;;;;;;;2.28;0.73;;;23.80;43.80;;;;;;5056316;28;20044;-54
2022/09/27 12:02:26;;;;;;;4.55;0.88;;;23.80;43.60;;;;;;5044561;28;20053;-54
2022/09/27 12:05:13;;;;;;;3.72;0.63;;;23.90;43.50;;;;;;5049745;28;20029;-55
2022/09/27 12:07:56;;;;;;;3.85;0.80;;;23.90;43.40;;;;;;5033171;28;20129;-54
2022/09/27 12:10:22;;;;;;;1.45;0.47;;;23.90;43.40;;;;;;5051771;28;20056;-57
2022/09/27 12:12:52;;;;;;;1.83;0.70;;;23.80;43.90;;;;;;5051434;28;20041;-54
2022/09/27 12:15:26;;;;;;;1.25;0.40;;;23.80;43.10;;;;;;5034918;28;20029;-59
2022/09/27 12:18:09;;;;;;;5.22;1.10;;;23.80;43.00;;;;;;5056079;28;20036;-64
2022/09/27 12:20:36;;;;;;;2.33;0.40;;;23.80;42.70;;;;;;5039078;28;20025;-54
2022/09/27 12:23:25;;;;;;;2.97;0.43;;;23.80;42.50;;;;;;5055570;28;20036;-60
2022/09/27 12:26:06;;;;;;;3.03;0.45;;;23.80;42.40;;;;;;5050081;28;20116;-57
2022/09/27 12:29:04;;;;;;;0.70;0.40;;;23.80;42.40;;;;;;5051024;28;20082;-53
2022/09/27 12:31:43;;;;;;;2.33;0.65;;;23.80;42.40;;;;;;5051542;28;20107;-56
2022/09/27 12:34:44;;;;;;;1.42;0.60;;;23.70;42.50;;;;;;5055553;28;20053;-57
2022/09/27 12:37:10;;;;;;;1.08;0.47;;;23.80;42.60;;;;;;5047617;28;20022;-54
2022/09/27 12:39:49;;;;;;;3.95;0.40;;;23.70;42.50;;;;;;5055538;28;20041;-52
2022/09/27 12:42:30;;;;;;;0.80;0.20;;;23.70;42.50;;;;;;5055508;28;20091;-57
2022/09/27 12:44:59;;;;;;;0.22;0.20;;;23.80;42.60;;;;;;5035416;28;20033;-53
2022/09/27 12:47:51;;;;;;;0.32;0.20;;;23.80;42.50;;;;;;5051611;28;20029;-58
2022/09/27 12:50:41;;;;;;;0.70;0.30;;;23.80;42.40;;;;;;5048222;28;20033;-64
2022/09/27 12:53:17;;;;;;;4.22;0.30;;;23.80;42.30;;;;;;5051990;28;20560;-57
2022/09/27 12:56:05;;;;;;;2.88;0.28;;;23.80;42.20;;;;;;5048891;28;20079;-58
2022/09/27 12:58:41;;;;;;;2.38;0.50;;;23.80;42.20;;;;;;5024822;28;20044;-63
2022/09/27 13:01:24;;;;;;;2.10;0.50;;;23.80;42.40;;;;;;5046188;28;20064;-61
2022/09/27 13:03:58;;;;;;;7.80;0.40;;;23.80;42.70;;;;;;5033946;28;20132;-64
2022/09/27 13:06:55;;;;;;;2.30;0.50;;;23.80;42.90;;;;;;5037101;28;20037;-64
2022/09/27 13:09:57;;;;;;;2.22;0.50;;;23.80;43.10;;;;;;5036535;28;20048;-61
2022/09/27 13:12:28;;;;;;;1.05;0.50;;;23.80;43.20;;;;;;5042339;28;20030;-60
2022/09/27 13:15:29;;;;;;;1.58;0.38;;;23.90;43.20;;;;;;5034977;28;20037;-58
2022/09/27 13:17:58;;;;;;;1.23;0.50;;;23.90;43.30;;;;;;5035205;28;20134;-62
2022/09/27 13:20:35;;;;;;;1.13;0.50;;;23.90;43.30;;;;;;5034399;28;20449;-62
2022/09/27 13:23:19;;;;;;;1.50;0.55;;;23.90;43.30;;;;;;5034674;28;20037;-60
2022/09/27 13:25:55;;;;;;;2.47;0.50;;;23.90;43.20;;;;;;5044437;28;20124;-61
2022/09/27 13:28:56;;;;;;;2.03;0.50;;;23.90;43.20;;;;;;5043097;28;20151;-60
2022/09/27 13:32:01;;;;;;;1.88;0.65;;;24.00;43.10;;;;;;5042371;28;20028;-60
2022/09/27 13:34:41;;;;;;;1.25;0.60;;;24.00;43.00;;;;;;5046932;28;20111;-59
2022/09/27 13:37:28;;;;;;;1.27;0.40;;;24.00;43.00;;;;;;5040613;28;20346;-60
2022/09/27 13:40:27;;;;;;;0.98;0.50;;;24.00;42.80;;;;;;5059476;28;20071;-60
2022/09/27 13:43:09;;;;;;;2.20;0.70;;;24.00;42.80;;;;;;5061656;28;20400;-58
2022/09/27 13:45:50;;;;;;;1.90;0.43;;;24.00;42.70;;;;;;5051809;28;20022;-60